sensor_id;sensor_type;location;lat;lon;timestamp;temperature;humidity
22321;DHT22;11328;53.928;18.522;2024-02-15T00:01:50;8.20;99.90
22321;DHT22;11328;53.928;18.522;2024-02-15T00:04:17;8.20;99.90
22321;DHT22;11328;53.928;18.522;2024-02-15T00:06:46;8.20;99.90
22321;DHT22;11328;53.928;18.522;2024-02-15T00:09:13;8.20;99.90
22321;DHT22;11328;53.928;18.522;2024-02-15T00:11:40;8.20;99.90
22321;DHT22;11328;53.928;18.522;2024-02-15T00:14:07;8.20;99.90
22321;DHT22;11328;53.928;18.522;2024-02-15T00:16:35;8.30;99.90
22321;DHT22;11328;53.928;18.522;2024-02-15T00:19:02;8.30;99.90
22321;DHT22;11328;53.928;18.522;2024-02-15T00:21:31;8.30;99.90
22321;DHT22;11328;53.928;18.522;2024-02-15T00:23:59;8.30;99.90
22321;DHT22;11328;53.928;18.522;2024-02-15T00:26:27;8.30;99.90
22321;DHT22;11328;53.928;18.522;2024-02-15T00:28:54;8.20;99.90
22321;DHT22;11328;53.928;18.522;2024-02-15T00:31:21;8.20;99.90
22321;DHT22;11328;53.928;18.522;2024-02-15T00:33:48;8.20;99.90
22321;DHT22;11328;53.928;18.522;2024-02-15T00:36:15;8.20;99.90
22321;DHT22;11328;53.928;18.522;2024-02-15T00:38:42;8.20;99.90
22321;DHT22;11328;53.928;18.522;2024-02-15T00:41:10;8.20;99.90
22321;DHT22;11328;53.928;18.522;2024-02-15T00:43:37;8.20;99.90
22321;DHT22;11328;53.928;18.522;2024-02-15T00:46:04;8.20;99.90
22321;DHT22;11328;53.928;18.522;2024-02-15T00:48:31;8.20;99.90
22321;DHT22;11328;53.928;18.522;2024-02-15T00:50:59;8.20;99.90
22321;DHT22;11328;53.928;18.522;2024-02-15T00:53:26;8.20;99.90
22321;DHT22;11328;53.928;18.522;2024-02-15T00:55:53;8.20;99.90
22321;DHT22;11328;53.928;18.522;2024-02-15T00:58:22;8.30;99.90
22321;DHT22;11328;53.928;18.522;2024-02-15T01:00:51;8.20;99.90
22321;DHT22;11328;53.928;18.522;2024-02-15T01:03:18;8.20;99.90
22321;DHT22;11328;53.928;18.522;2024-02-15T01:05:46;8.20;99.90
22321;DHT22;11328;53.928;18.522;2024-02-15T01:08:13;8.20;99.90
22321;DHT22;11328;53.928;18.522;2024-02-15T01:10:40;8.20;99.90
22321;DHT22;11328;53.928;18.522;2024-02-15T01:13:07;8.20;99.90
22321;DHT22;11328;53.928;18.522;2024-02-15T01:15:35;8.30;99.90
22321;DHT22;11328;53.928;18.522;2024-02-15T01:18:04;8.30;99.90
22321;DHT22;11328;53.928;18.522;2024-02-15T01:20:31;8.20;99.90
22321;DHT22;11328;53.928;18.522;2024-02-15T01:22:58;8.30;99.90
22321;DHT22;11328;53.928;18.522;2024-02-15T01:25:25;8.20;99.90
22321;DHT22;11328;53.928;18.522;2024-02-15T01:27:54;8.20;99.90
22321;DHT22;11328;53.928;18.522;2024-02-15T01:30:21;8.20;99.90
22321;DHT22;11328;53.928;18.522;2024-02-15T01:32:48;8.20;99.90
22321;DHT22;11328;53.928;18.522;2024-02-15T01:35:16;8.20;99.90
22321;DHT22;11328;53.928;18.522;2024-02-15T01:37:43;8.20;99.90
22321;DHT22;11328;53.928;18.522;2024-02-15T01:40:10;8.20;99.90
22321;DHT22;11328;53.928;18.522;2024-02-15T01:42:39;8.30;99.90
22321;DHT22;11328;53.928;18.522;2024-02-15T01:45:07;8.20;99.90
22321;DHT22;11328;53.928;18.522;2024-02-15T01:47:37;8.20;99.90
22321;DHT22;11328;53.928;18.522;2024-02-15T01:50:07;8.20;99.90
22321;DHT22;11328;53.928;18.522;2024-02-15T01:52:35;8.20;99.90
22321;DHT22;11328;53.928;18.522;2024-02-15T01:55:03;8.20;99.90
22321;DHT22;11328;53.928;18.522;2024-02-15T01:57:35;8.20;99.90
22321;DHT22;11328;53.928;18.522;2024-02-15T02:00:06;8.20;99.90
22321;DHT22;11328;53.928;18.522;2024-02-15T02:02:39;8.20;99.90
22321;DHT22;11328;53.928;18.522;2024-02-15T02:05:08;8.20;99.90
22321;DHT22;11328;53.928;18.522;2024-02-15T02:07:36;8.20;99.90
22321;DHT22;11328;53.928;18.522;2024-02-15T02:10:05;8.20;99.90
22321;DHT22;11328;53.928;18.522;2024-02-15T02:12:34;8.20;99.90
22321;DHT22;11328;53.928;18.522;2024-02-15T02:15:01;8.20;99.90
22321;DHT22;11328;53.928;18.522;2024-02-15T02:17:28;8.20;99.90
22321;DHT22;11328;53.928;18.522;2024-02-15T02:19:55;8.20;99.90
22321;DHT22;11328;53.928;18.522;2024-02-15T02:22:24;8.20;99.90
22321;DHT22;11328;53.928;18.522;2024-02-15T02:27:27;8.20;99.90
22321;DHT22;11328;53.928;18.522;2024-02-15T02:29:55;8.20;99.90
22321;DHT22;11328;53.928;18.522;2024-02-15T02:32:23;8.20;99.90
22321;DHT22;11328;53.928;18.522;2024-02-15T02:34:51;8.20;99.90
22321;DHT22;11328;53.928;18.522;2024-02-15T02:37:21;8.20;99.90
22321;DHT22;11328;53.928;18.522;2024-02-15T02:39:48;8.20;99.90
22321;DHT22;11328;53.928;18.522;2024-02-15T02:42:15;8.30;99.90
22321;DHT22;11328;53.928;18.522;2024-02-15T02:44:42;8.30;99.90
22321;DHT22;11328;53.928;18.522;2024-02-15T02:47:09;8.30;99.90
22321;DHT22;11328;53.928;18.522;2024-02-15T02:49:37;8.30;99.90
22321;DHT22;11328;53.928;18.522;2024-02-15T02:52:05;8.30;99.90
22321;DHT22;11328;53.928;18.522;2024-02-15T02:54:32;8.30;99.90
22321;DHT22;11328;53.928;18.522;2024-02-15T02:57:00;8.20;99.90
22321;DHT22;11328;53.928;18.522;2024-02-15T02:59:27;8.20;99.90
22321;DHT22;11328;53.928;18.522;2024-02-15T03:01:54;8.20;99.90
22321;DHT22;11328;53.928;18.522;2024-02-15T03:04:23;8.20;99.90
22321;DHT22;11328;53.928;18.522;2024-02-15T03:06:50;8.20;99.90
22321;DHT22;11328;53.928;18.522;2024-02-15T03:09:18;8.10;99.90
22321;DHT22;11328;53.928;18.522;2024-02-15T03:11:47;8.20;99.90
22321;DHT22;11328;53.928;18.522;2024-02-15T03:14:14;8.20;99.90
22321;DHT22;11328;53.928;18.522;2024-02-15T03:16:41;8.20;99.90
22321;DHT22;11328;53.928;18.522;2024-02-15T03:19:08;8.20;99.90
22321;DHT22;11328;53.928;18.522;2024-02-15T03:21:38;8.30;99.90
22321;DHT22;11328;53.928;18.522;2024-02-15T03:24:06;8.30;99.90
22321;DHT22;11328;53.928;18.522;2024-02-15T03:26:34;8.30;99.90
22321;DHT22;11328;53.928;18.522;2024-02-15T03:29:05;8.30;99.90
22321;DHT22;11328;53.928;18.522;2024-02-15T03:31:35;8.30;99.90
22321;DHT22;11328;53.928;18.522;2024-02-15T03:34:06;8.30;99.90
22321;DHT22;11328;53.928;18.522;2024-02-15T03:36:33;8.30;99.90
22321;DHT22;11328;53.928;18.522;2024-02-15T03:39:00;8.30;99.90
22321;DHT22;11328;53.928;18.522;2024-02-15T03:41:28;8.40;99.90
22321;DHT22;11328;53.928;18.522;2024-02-15T03:43:59;8.40;99.90
22321;DHT22;11328;53.928;18.522;2024-02-15T03:46:26;8.40;99.90
22321;DHT22;11328;53.928;18.522;2024-02-15T03:48:54;8.40;99.90
22321;DHT22;11328;53.928;18.522;2024-02-15T03:51:23;8.40;99.90
22321;DHT22;11328;53.928;18.522;2024-02-15T03:53:51;8.40;99.90
22321;DHT22;11328;53.928;18.522;2024-02-15T03:56:19;8.50;99.90
22321;DHT22;11328;53.928;18.522;2024-02-15T03:58:48;8.50;99.90
22321;DHT22;11328;53.928;18.522;2024-02-15T04:01:17;8.40;99.90
22321;DHT22;11328;53.928;18.522;2024-02-15T04:03:49;8.40;99.90
22321;DHT22;11328;53.928;18.522;2024-02-15T04:06:16;8.50;99.90
22321;DHT22;11328;53.928;18.522;2024-02-15T04:08:44;8.40;99.90
22321;DHT22;11328;53.928;18.522;2024-02-15T04:11:11;8.50;99.90
22321;DHT22;11328;53.928;18.522;2024-02-15T04:13:38;8.40;99.90
22321;DHT22;11328;53.928;18.522;2024-02-15T04:16:05;8.40;99.90
22321;DHT22;11328;53.928;18.522;2024-02-15T04:18:32;8.40;99.90
22321;DHT22;11328;53.928;18.522;2024-02-15T04:20:59;8.40;99.90
22321;DHT22;11328;53.928;18.522;2024-02-15T04:23:26;8.30;99.90
22321;DHT22;11328;53.928;18.522;2024-02-15T04:25:53;8.40;99.90
22321;DHT22;11328;53.928;18.522;2024-02-15T04:28:21;8.30;99.90
22321;DHT22;11328;53.928;18.522;2024-02-15T04:30:48;8.30;99.90
22321;DHT22;11328;53.928;18.522;2024-02-15T04:33:15;8.20;99.90
22321;DHT22;11328;53.928;18.522;2024-02-15T04:35:43;8.30;99.90
22321;DHT22;11328;53.928;18.522;2024-02-15T04:38:11;8.30;99.90
22321;DHT22;11328;53.928;18.522;2024-02-15T04:40:38;8.20;99.90
22321;DHT22;11328;53.928;18.522;2024-02-15T04:43:06;8.30;99.90
22321;DHT22;11328;53.928;18.522;2024-02-15T04:45:35;8.30;99.90
22321;DHT22;11328;53.928;18.522;2024-02-15T04:48:02;8.30;99.90
22321;DHT22;11328;53.928;18.522;2024-02-15T04:50:30;8.20;99.90
22321;DHT22;11328;53.928;18.522;2024-02-15T04:52:57;8.20;99.90
22321;DHT22;11328;53.928;18.522;2024-02-15T04:55:24;8.30;99.90
22321;DHT22;11328;53.928;18.522;2024-02-15T04:57:53;8.20;99.90
22321;DHT22;11328;53.928;18.522;2024-02-15T05:00:23;8.20;99.90
22321;DHT22;11328;53.928;18.522;2024-02-15T05:02:52;8.30;99.90
22321;DHT22;11328;53.928;18.522;2024-02-15T05:05:20;8.30;99.90
22321;DHT22;11328;53.928;18.522;2024-02-15T05:07:48;8.30;99.90
22321;DHT22;11328;53.928;18.522;2024-02-15T05:10:18;8.30;99.90
22321;DHT22;11328;53.928;18.522;2024-02-15T05:12:45;8.30;99.90
22321;DHT22;11328;53.928;18.522;2024-02-15T05:15:15;8.30;99.90
22321;DHT22;11328;53.928;18.522;2024-02-15T05:17:45;8.30;99.90
22321;DHT22;11328;53.928;18.522;2024-02-15T05:20:12;8.30;99.90
22321;DHT22;11328;53.928;18.522;2024-02-15T05:22:41;8.30;99.90
22321;DHT22;11328;53.928;18.522;2024-02-15T05:25:17;8.30;99.90
22321;DHT22;11328;53.928;18.522;2024-02-15T05:27:51;8.30;99.90
22321;DHT22;11328;53.928;18.522;2024-02-15T05:30:21;8.30;99.90
22321;DHT22;11328;53.928;18.522;2024-02-15T05:32:48;8.30;99.90
22321;DHT22;11328;53.928;18.522;2024-02-15T05:35:16;8.30;99.90
22321;DHT22;11328;53.928;18.522;2024-02-15T05:37:44;8.30;99.90
22321;DHT22;11328;53.928;18.522;2024-02-15T05:40:12;8.40;99.90
22321;DHT22;11328;53.928;18.522;2024-02-15T05:42:44;8.40;99.90
22321;DHT22;11328;53.928;18.522;2024-02-15T05:47:52;8.50;99.90
22321;DHT22;11328;53.928;18.522;2024-02-15T05:50:20;8.60;99.90
22321;DHT22;11328;53.928;18.522;2024-02-15T05:52:48;8.60;99.90
22321;DHT22;11328;53.928;18.522;2024-02-15T05:55:15;8.60;99.90
22321;DHT22;11328;53.928;18.522;2024-02-15T05:57:43;8.70;99.90
22321;DHT22;11328;53.928;18.522;2024-02-15T06:00:11;8.70;99.90
22321;DHT22;11328;53.928;18.522;2024-02-15T06:02:48;8.70;99.90
22321;DHT22;11328;53.928;18.522;2024-02-15T06:05:17;8.70;99.90
22321;DHT22;11328;53.928;18.522;2024-02-15T06:07:44;8.80;99.90
22321;DHT22;11328;53.928;18.522;2024-02-15T06:10:14;8.80;99.90
22321;DHT22;11328;53.928;18.522;2024-02-15T06:12:42;8.80;99.90
22321;DHT22;11328;53.928;18.522;2024-02-15T06:15:10;8.80;99.90
22321;DHT22;11328;53.928;18.522;2024-02-15T06:17:44;8.80;99.90
22321;DHT22;11328;53.928;18.522;2024-02-15T06:20:15;8.90;99.90
22321;DHT22;11328;53.928;18.522;2024-02-15T06:22:48;8.80;99.90
22321;DHT22;11328;53.928;18.522;2024-02-15T06:25:15;8.80;99.90
22321;DHT22;11328;53.928;18.522;2024-02-15T06:27:47;8.80;99.90
22321;DHT22;11328;53.928;18.522;2024-02-15T06:30:15;8.80;99.90
22321;DHT22;11328;53.928;18.522;2024-02-15T06:33:00;8.80;99.90
22321;DHT22;11328;53.928;18.522;2024-02-15T06:35:46;8.90;99.90
22321;DHT22;11328;53.928;18.522;2024-02-15T06:38:32;8.90;99.90
22321;DHT22;11328;53.928;18.522;2024-02-15T06:41:17;8.90;99.90
22321;DHT22;11328;53.928;18.522;2024-02-15T06:43:48;8.90;99.90
22321;DHT22;11328;53.928;18.522;2024-02-15T06:46:15;8.90;99.90
22321;DHT22;11328;53.928;18.522;2024-02-15T06:48:42;8.90;99.90
22321;DHT22;11328;53.928;18.522;2024-02-15T06:51:13;8.90;99.90
22321;DHT22;11328;53.928;18.522;2024-02-15T06:53:42;8.90;99.90
22321;DHT22;11328;53.928;18.522;2024-02-15T06:56:10;8.80;99.90
22321;DHT22;11328;53.928;18.522;2024-02-15T06:58:38;8.90;99.90
22321;DHT22;11328;53.928;18.522;2024-02-15T07:01:07;8.90;99.90
22321;DHT22;11328;53.928;18.522;2024-02-15T07:03:35;8.90;99.90
22321;DHT22;11328;53.928;18.522;2024-02-15T07:06:02;8.90;99.90
22321;DHT22;11328;53.928;18.522;2024-02-15T07:08:31;8.90;99.90
22321;DHT22;11328;53.928;18.522;2024-02-15T07:10:59;8.80;99.90
22321;DHT22;11328;53.928;18.522;2024-02-15T07:13:26;8.80;99.90
22321;DHT22;11328;53.928;18.522;2024-02-15T07:15:53;8.80;99.90
22321;DHT22;11328;53.928;18.522;2024-02-15T07:18:20;8.80;99.90
22321;DHT22;11328;53.928;18.522;2024-02-15T07:20:54;8.90;99.90
22321;DHT22;11328;53.928;18.522;2024-02-15T07:23:23;8.90;99.90
22321;DHT22;11328;53.928;18.522;2024-02-15T07:25:52;8.90;99.90
22321;DHT22;11328;53.928;18.522;2024-02-15T07:28:20;8.90;99.90
22321;DHT22;11328;53.928;18.522;2024-02-15T07:30:48;9.00;99.90
22321;DHT22;11328;53.928;18.522;2024-02-15T07:33:18;9.10;99.90
22321;DHT22;11328;53.928;18.522;2024-02-15T07:35:48;9.10;99.90
22321;DHT22;11328;53.928;18.522;2024-02-15T07:38:17;9.10;99.90
22321;DHT22;11328;53.928;18.522;2024-02-15T07:40:44;9.10;99.90
22321;DHT22;11328;53.928;18.522;2024-02-15T07:43:11;9.10;99.90
22321;DHT22;11328;53.928;18.522;2024-02-15T07:45:38;9.10;99.90
22321;DHT22;11328;53.928;18.522;2024-02-15T07:48:06;9.10;99.90
22321;DHT22;11328;53.928;18.522;2024-02-15T07:50:33;9.10;99.90
22321;DHT22;11328;53.928;18.522;2024-02-15T07:53:00;9.10;99.90
22321;DHT22;11328;53.928;18.522;2024-02-15T07:55:27;9.10;99.90
22321;DHT22;11328;53.928;18.522;2024-02-15T07:57:54;9.20;99.90
22321;DHT22;11328;53.928;18.522;2024-02-15T08:00:22;9.20;99.90
22321;DHT22;11328;53.928;18.522;2024-02-15T08:02:49;9.20;99.90
22321;DHT22;11328;53.928;18.522;2024-02-15T08:05:16;9.20;99.90
22321;DHT22;11328;53.928;18.522;2024-02-15T08:07:44;9.20;99.90
22321;DHT22;11328;53.928;18.522;2024-02-15T08:10:12;9.30;99.90
22321;DHT22;11328;53.928;18.522;2024-02-15T08:12:44;9.30;99.90
22321;DHT22;11328;53.928;18.522;2024-02-15T08:15:12;9.30;99.90
22321;DHT22;11328;53.928;18.522;2024-02-15T08:17:41;9.40;99.90
22321;DHT22;11328;53.928;18.522;2024-02-15T08:20:14;9.40;99.90
22321;DHT22;11328;53.928;18.522;2024-02-15T08:22:41;9.50;99.90
22321;DHT22;11328;53.928;18.522;2024-02-15T08:25:12;9.40;99.90
22321;DHT22;11328;53.928;18.522;2024-02-15T08:27:44;9.40;99.90
22321;DHT22;11328;53.928;18.522;2024-02-15T08:30:16;9.50;99.90
22321;DHT22;11328;53.928;18.522;2024-02-15T08:32:48;9.40;99.90
22321;DHT22;11328;53.928;18.522;2024-02-15T08:35:15;9.40;99.90
22321;DHT22;11328;53.928;18.522;2024-02-15T08:37:43;9.50;99.90
22321;DHT22;11328;53.928;18.522;2024-02-15T08:40:13;9.50;99.90
22321;DHT22;11328;53.928;18.522;2024-02-15T08:42:42;9.60;99.90
22321;DHT22;11328;53.928;18.522;2024-02-15T08:45:11;9.50;99.90
22321;DHT22;11328;53.928;18.522;2024-02-15T08:47:40;9.50;99.90
22321;DHT22;11328;53.928;18.522;2024-02-15T08:50:10;9.60;99.90
22321;DHT22;11328;53.928;18.522;2024-02-15T08:52:39;9.70;99.90
22321;DHT22;11328;53.928;18.522;2024-02-15T08:55:08;9.70;99.90
22321;DHT22;11328;53.928;18.522;2024-02-15T08:57:37;9.80;99.90
22321;DHT22;11328;53.928;18.522;2024-02-15T09:00:07;9.80;99.90
22321;DHT22;11328;53.928;18.522;2024-02-15T09:02:40;9.80;99.90
22321;DHT22;11328;53.928;18.522;2024-02-15T09:05:08;9.80;99.90
22321;DHT22;11328;53.928;18.522;2024-02-15T09:07:36;9.80;99.90
22321;DHT22;11328;53.928;18.522;2024-02-15T09:10:03;9.80;99.90
22321;DHT22;11328;53.928;18.522;2024-02-15T09:12:33;9.80;99.90
22321;DHT22;11328;53.928;18.522;2024-02-15T09:15:01;9.80;99.90
22321;DHT22;11328;53.928;18.522;2024-02-15T09:17:28;9.80;99.90
22321;DHT22;11328;53.928;18.522;2024-02-15T09:19:58;9.80;99.90
22321;DHT22;11328;53.928;18.522;2024-02-15T09:22:25;9.80;99.90
22321;DHT22;11328;53.928;18.522;2024-02-15T09:24:53;9.80;99.90
22321;DHT22;11328;53.928;18.522;2024-02-15T09:27:20;9.80;99.90
22321;DHT22;11328;53.928;18.522;2024-02-15T09:29:47;9.90;99.90
22321;DHT22;11328;53.928;18.522;2024-02-15T09:32:15;9.90;99.90
22321;DHT22;11328;53.928;18.522;2024-02-15T09:34:41;10.00;99.90
22321;DHT22;11328;53.928;18.522;2024-02-15T09:37:09;10.00;99.90
22321;DHT22;11328;53.928;18.522;2024-02-15T09:39:37;10.00;99.90
22321;DHT22;11328;53.928;18.522;2024-02-15T09:42:04;10.00;99.90
22321;DHT22;11328;53.928;18.522;2024-02-15T09:44:32;10.00;99.90
22321;DHT22;11328;53.928;18.522;2024-02-15T09:47:04;10.10;99.90
22321;DHT22;11328;53.928;18.522;2024-02-15T09:49:39;10.10;99.90
22321;DHT22;11328;53.928;18.522;2024-02-15T09:52:08;10.10;99.90
22321;DHT22;11328;53.928;18.522;2024-02-15T09:54:42;10.10;99.90
22321;DHT22;11328;53.928;18.522;2024-02-15T09:57:11;10.10;99.90
22321;DHT22;11328;53.928;18.522;2024-02-15T09:59:39;10.10;99.90
22321;DHT22;11328;53.928;18.522;2024-02-15T10:02:07;10.00;99.90
22321;DHT22;11328;53.928;18.522;2024-02-15T10:04:39;10.10;99.90
22321;DHT22;11328;53.928;18.522;2024-02-15T10:07:06;10.10;99.90
22321;DHT22;11328;53.928;18.522;2024-02-15T10:09:36;10.20;99.90
22321;DHT22;11328;53.928;18.522;2024-02-15T10:12:09;10.20;99.90
22321;DHT22;11328;53.928;18.522;2024-02-15T10:14:36;10.20;99.90
22321;DHT22;11328;53.928;18.522;2024-02-15T10:17:07;10.20;99.90
22321;DHT22;11328;53.928;18.522;2024-02-15T10:19:37;10.30;99.90
22321;DHT22;11328;53.928;18.522;2024-02-15T10:22:06;10.30;99.90
22321;DHT22;11328;53.928;18.522;2024-02-15T10:24:34;10.40;99.90
22321;DHT22;11328;53.928;18.522;2024-02-15T10:27:04;10.30;99.90
22321;DHT22;11328;53.928;18.522;2024-02-15T10:29:33;10.30;99.90
22321;DHT22;11328;53.928;18.522;2024-02-15T10:32:02;10.30;99.90
22321;DHT22;11328;53.928;18.522;2024-02-15T10:34:31;10.40;99.90
22321;DHT22;11328;53.928;18.522;2024-02-15T10:37:12;10.40;99.90
22321;DHT22;11328;53.928;18.522;2024-02-15T10:39:40;10.40;99.90
22321;DHT22;11328;53.928;18.522;2024-02-15T10:42:07;10.40;99.90
22321;DHT22;11328;53.928;18.522;2024-02-15T10:44:38;10.30;99.90
22321;DHT22;11328;53.928;18.522;2024-02-15T10:47:07;10.40;99.90
22321;DHT22;11328;53.928;18.522;2024-02-15T10:49:35;10.50;99.90
22321;DHT22;11328;53.928;18.522;2024-02-15T10:52:04;10.50;99.90
22321;DHT22;11328;53.928;18.522;2024-02-15T10:55:08;10.50;99.90
22321;DHT22;11328;53.928;18.522;2024-02-15T10:57:44;10.60;99.90
22321;DHT22;11328;53.928;18.522;2024-02-15T11:00:16;10.50;99.90
22321;DHT22;11328;53.928;18.522;2024-02-15T11:03:01;10.50;99.90
22321;DHT22;11328;53.928;18.522;2024-02-15T11:05:32;10.60;99.90
22321;DHT22;11328;53.928;18.522;2024-02-15T11:08:05;10.50;99.90
22321;DHT22;11328;53.928;18.522;2024-02-15T11:10:35;10.60;99.90
22321;DHT22;11328;53.928;18.522;2024-02-15T11:13:04;10.60;99.90
22321;DHT22;11328;53.928;18.522;2024-02-15T11:15:44;10.60;99.90
22321;DHT22;11328;53.928;18.522;2024-02-15T11:18:47;10.60;99.90
22321;DHT22;11328;53.928;18.522;2024-02-15T11:21:16;10.60;99.90
22321;DHT22;11328;53.928;18.522;2024-02-15T11:24:29;10.60;99.90
22321;DHT22;11328;53.928;18.522;2024-02-15T11:27:05;10.70;99.90
22321;DHT22;11328;53.928;18.522;2024-02-15T11:35:13;10.90;99.90
22321;DHT22;11328;53.928;18.522;2024-02-15T11:37:59;10.90;99.90
22321;DHT22;11328;53.928;18.522;2024-02-15T11:43:08;11.00;99.90
22321;DHT22;11328;53.928;18.522;2024-02-15T11:45:37;11.00;99.90
22321;DHT22;11328;53.928;18.522;2024-02-15T11:48:14;11.00;99.90
22321;DHT22;11328;53.928;18.522;2024-02-15T11:50:42;11.00;99.90
22321;DHT22;11328;53.928;18.522;2024-02-15T11:53:10;11.10;99.90
22321;DHT22;11328;53.928;18.522;2024-02-15T11:55:39;11.10;99.90
22321;DHT22;11328;53.928;18.522;2024-02-15T11:58:09;11.20;99.90
22321;DHT22;11328;53.928;18.522;2024-02-15T12:00:38;11.20;99.90
22321;DHT22;11328;53.928;18.522;2024-02-15T12:03:25;11.30;99.90
22321;DHT22;11328;53.928;18.522;2024-02-15T12:06:30;11.30;99.90
22321;DHT22;11328;53.928;18.522;2024-02-15T12:09:20;11.30;99.90
22321;DHT22;11328;53.928;18.522;2024-02-15T12:12:06;11.30;99.90
22321;DHT22;11328;53.928;18.522;2024-02-15T12:14:59;11.30;99.90
22321;DHT22;11328;53.928;18.522;2024-02-15T12:17:45;11.30;99.90
22321;DHT22;11328;53.928;18.522;2024-02-15T12:20:31;11.30;99.90
22321;DHT22;11328;53.928;18.522;2024-02-15T12:22:59;11.30;99.90
22321;DHT22;11328;53.928;18.522;2024-02-15T12:25:29;11.20;99.90
22321;DHT22;11328;53.928;18.522;2024-02-15T12:28:00;11.20;99.90
22321;DHT22;11328;53.928;18.522;2024-02-15T12:30:34;11.20;99.90
22321;DHT22;11328;53.928;18.522;2024-02-15T12:33:13;11.20;99.90
22321;DHT22;11328;53.928;18.522;2024-02-15T12:35:47;11.20;99.90
22321;DHT22;11328;53.928;18.522;2024-02-15T12:38:14;11.20;99.90
22321;DHT22;11328;53.928;18.522;2024-02-15T12:40:44;11.20;99.90
22321;DHT22;11328;53.928;18.522;2024-02-15T12:43:15;11.20;99.90
22321;DHT22;11328;53.928;18.522;2024-02-15T12:45:42;11.20;99.90
22321;DHT22;11328;53.928;18.522;2024-02-15T12:48:10;11.20;99.90
22321;DHT22;11328;53.928;18.522;2024-02-15T12:50:42;11.20;99.90
22321;DHT22;11328;53.928;18.522;2024-02-15T12:53:09;11.30;99.90
22321;DHT22;11328;53.928;18.522;2024-02-15T12:55:36;11.30;99.90
22321;DHT22;11328;53.928;18.522;2024-02-15T12:58:12;11.30;99.90
22321;DHT22;11328;53.928;18.522;2024-02-15T13:00:40;11.30;99.90
22321;DHT22;11328;53.928;18.522;2024-02-15T13:03:08;11.30;99.90
22321;DHT22;11328;53.928;18.522;2024-02-15T13:05:40;11.40;99.90
22321;DHT22;11328;53.928;18.522;2024-02-15T13:08:08;11.50;99.90
22321;DHT22;11328;53.928;18.522;2024-02-15T13:10:40;11.60;99.90
22321;DHT22;11328;53.928;18.522;2024-02-15T13:13:09;11.70;99.90
22321;DHT22;11328;53.928;18.522;2024-02-15T13:15:37;11.70;99.90
22321;DHT22;11328;53.928;18.522;2024-02-15T13:18:06;11.80;99.90
22321;DHT22;11328;53.928;18.522;2024-02-15T13:20:37;11.80;99.90
22321;DHT22;11328;53.928;18.522;2024-02-15T13:23:06;11.90;99.90
22321;DHT22;11328;53.928;18.522;2024-02-15T13:25:36;12.00;99.90
22321;DHT22;11328;53.928;18.522;2024-02-15T13:28:06;12.10;99.90
22321;DHT22;11328;53.928;18.522;2024-02-15T13:30:36;12.00;99.90
22321;DHT22;11328;53.928;18.522;2024-02-15T13:33:03;12.10;99.90
22321;DHT22;11328;53.928;18.522;2024-02-15T13:35:32;12.00;99.90
22321;DHT22;11328;53.928;18.522;2024-02-15T13:37:59;12.00;99.90
22321;DHT22;11328;53.928;18.522;2024-02-15T13:40:27;12.00;99.90
22321;DHT22;11328;53.928;18.522;2024-02-15T13:43:00;12.10;99.90
22321;DHT22;11328;53.928;18.522;2024-02-15T13:45:42;12.00;99.90
22321;DHT22;11328;53.928;18.522;2024-02-15T13:48:11;12.10;99.90
22321;DHT22;11328;53.928;18.522;2024-02-15T13:50:43;12.10;99.90
22321;DHT22;11328;53.928;18.522;2024-02-15T13:53:12;12.00;99.90
22321;DHT22;11328;53.928;18.522;2024-02-15T13:55:40;12.10;99.90
22321;DHT22;11328;53.928;18.522;2024-02-15T13:58:08;12.20;99.90
22321;DHT22;11328;53.928;18.522;2024-02-15T14:00:40;12.20;99.90
22321;DHT22;11328;53.928;18.522;2024-02-15T14:03:10;12.30;99.90
22321;DHT22;11328;53.928;18.522;2024-02-15T14:05:39;12.40;99.90
22321;DHT22;11328;53.928;18.522;2024-02-15T14:08:10;12.40;99.90
22321;DHT22;11328;53.928;18.522;2024-02-15T14:10:40;12.50;99.90
22321;DHT22;11328;53.928;18.522;2024-02-15T14:13:09;12.60;99.90
22321;DHT22;11328;53.928;18.522;2024-02-15T14:15:38;12.50;99.90
22321;DHT22;11328;53.928;18.522;2024-02-15T14:18:14;12.40;99.90
22321;DHT22;11328;53.928;18.522;2024-02-15T14:20:42;12.40;99.90
22321;DHT22;11328;53.928;18.522;2024-02-15T14:23:10;12.40;99.90
22321;DHT22;11328;53.928;18.522;2024-02-15T14:25:41;12.50;99.90
22321;DHT22;11328;53.928;18.522;2024-02-15T14:28:09;12.40;99.90
22321;DHT22;11328;53.928;18.522;2024-02-15T14:30:36;12.40;99.90
22321;DHT22;11328;53.928;18.522;2024-02-15T14:33:21;12.40;99.90
22321;DHT22;11328;53.928;18.522;2024-02-15T14:35:50;12.30;99.90
22321;DHT22;11328;53.928;18.522;2024-02-15T14:38:20;12.30;99.90
22321;DHT22;11328;53.928;18.522;2024-02-15T14:40:49;12.30;99.90
22321;DHT22;11328;53.928;18.522;2024-02-15T14:43:25;12.30;99.90
22321;DHT22;11328;53.928;18.522;2024-02-15T14:45:54;12.30;99.90
22321;DHT22;11328;53.928;18.522;2024-02-15T14:48:24;12.30;99.90
22321;DHT22;11328;53.928;18.522;2024-02-15T14:50:52;12.40;99.90
22321;DHT22;11328;53.928;18.522;2024-02-15T14:53:20;12.30;99.90
22321;DHT22;11328;53.928;18.522;2024-02-15T14:55:49;12.30;99.90
22321;DHT22;11328;53.928;18.522;2024-02-15T14:58:17;12.30;99.90
22321;DHT22;11328;53.928;18.522;2024-02-15T15:00:46;12.20;99.90
22321;DHT22;11328;53.928;18.522;2024-02-15T15:03:15;12.20;99.90
22321;DHT22;11328;53.928;18.522;2024-02-15T15:05:44;12.20;99.90
22321;DHT22;11328;53.928;18.522;2024-02-15T15:08:31;12.20;99.90
22321;DHT22;11328;53.928;18.522;2024-02-15T15:11:17;12.10;99.90
22321;DHT22;11328;53.928;18.522;2024-02-15T15:14:03;12.10;99.90
22321;DHT22;11328;53.928;18.522;2024-02-15T15:16:33;12.00;99.90
22321;DHT22;11328;53.928;18.522;2024-02-15T15:19:00;11.90;99.90
22321;DHT22;11328;53.928;18.522;2024-02-15T15:21:28;11.90;99.90
22321;DHT22;11328;53.928;18.522;2024-02-15T15:23:56;11.90;99.90
22321;DHT22;11328;53.928;18.522;2024-02-15T15:26:24;11.90;99.90
22321;DHT22;11328;53.928;18.522;2024-02-15T15:28:51;11.90;99.90
22321;DHT22;11328;53.928;18.522;2024-02-15T15:31:18;11.90;99.90
22321;DHT22;11328;53.928;18.522;2024-02-15T15:33:48;11.90;99.90
22321;DHT22;11328;53.928;18.522;2024-02-15T15:36:17;12.00;99.90
22321;DHT22;11328;53.928;18.522;2024-02-15T15:38:46;12.00;99.90
22321;DHT22;11328;53.928;18.522;2024-02-15T15:41:15;12.00;99.90
22321;DHT22;11328;53.928;18.522;2024-02-15T15:43:43;12.00;99.90
22321;DHT22;11328;53.928;18.522;2024-02-15T15:46:16;11.90;99.90
22321;DHT22;11328;53.928;18.522;2024-02-15T15:48:43;12.00;99.90
22321;DHT22;11328;53.928;18.522;2024-02-15T15:51:12;12.00;99.90
22321;DHT22;11328;53.928;18.522;2024-02-15T15:53:41;12.00;99.90
22321;DHT22;11328;53.928;18.522;2024-02-15T15:56:09;12.10;99.90